createdAt,value
2022-11-04T00:01:54.903Z,13.85
2022-11-04T00:04:23.138Z,13.85
2022-11-04T00:06:50.538Z,13.86
2022-11-04T00:09:19.509Z,13.87
2022-11-04T00:12:05.953Z,13.89
2022-11-04T00:14:33.691Z,13.88
2022-11-04T00:17:19.876Z,13.95
2022-11-04T00:20:10.788Z,14.07
2022-11-04T00:22:57.285Z,14.02
2022-11-04T00:25:42.856Z,13.99
2022-11-04T00:28:38.284Z,14.01
2022-11-04T00:31:25.447Z,13.98
2022-11-04T00:33:53.857Z,13.99
2022-11-04T00:36:21.823Z,13.98
2022-11-04T00:38:49.021Z,13.96
2022-11-04T00:41:28.788Z,13.97
2022-11-04T00:43:57.629Z,13.99
2022-11-04T00:46:24.836Z,13.99
2022-11-04T00:48:52.212Z,14.02
2022-11-04T00:51:21.421Z,14.11
2022-11-04T00:53:48.989Z,14.20
2022-11-04T00:56:16.917Z,14.21
2022-11-04T00:58:44.150Z,14.17
2022-11-04T01:01:12.419Z,14.12
2022-11-04T01:03:39.754Z,14.12
2022-11-04T01:06:07.382Z,14.18
2022-11-04T01:08:35.402Z,14.20
2022-11-04T01:11:03.565Z,14.20
2022-11-04T01:13:30.807Z,14.22
2022-11-04T01:15:58.998Z,14.27
2022-11-04T01:18:26.714Z,14.30
2022-11-04T01:20:53.858Z,14.32
2022-11-04T01:23:21.052Z,14.44
2022-11-04T01:25:48.606Z,14.47
2022-11-04T01:28:15.827Z,14.49
2022-11-04T01:30:43.063Z,14.51
2022-11-04T01:33:10.186Z,14.48
2022-11-04T01:35:37.390Z,14.54
2022-11-04T01:38:04.694Z,14.54
2022-11-04T01:40:36.091Z,14.47
2022-11-04T01:43:03.860Z,14.54
2022-11-04T01:45:31.133Z,14.60
2022-11-04T01:48:10.339Z,14.59
2022-11-04T01:50:37.558Z,14.51
2022-11-04T01:53:12.604Z,14.58
2022-11-04T01:55:41.943Z,14.59
2022-11-04T01:58:13.013Z,14.56
2022-11-04T02:00:40.733Z,14.59
2022-11-04T02:03:10.194Z,14.61
2022-11-04T02:05:38.683Z,14.53
2022-11-04T02:08:06.891Z,14.52
2022-11-04T02:10:34.085Z,14.53
2022-11-04T02:13:03.187Z,14.62
2022-11-04T02:15:36.561Z,14.57
2022-11-04T02:18:11.392Z,14.56
2022-11-04T02:21:00.771Z,14.58
2022-11-04T02:23:51.539Z,14.55
2022-11-04T02:26:30.733Z,14.50
2022-11-04T02:29:07.443Z,14.53
2022-11-04T02:31:37.732Z,14.52
2022-11-04T02:34:11.821Z,14.58
2022-11-04T02:36:50.293Z,14.51
2022-11-04T02:39:17.432Z,14.51
2022-11-04T02:41:53.403Z,14.48
2022-11-04T02:44:35.992Z,14.52
2022-11-04T02:47:13.603Z,14.59
2022-11-04T02:49:44.459Z,14.63
2022-11-04T02:52:17.160Z,14.63
2022-11-04T02:54:44.359Z,14.62
2022-11-04T02:57:13.796Z,14.64
2022-11-04T02:59:45.304Z,14.66
2022-11-04T05:05:32.374Z,14.72
2022-11-04T05:08:09.392Z,14.66
2022-11-04T05:10:36.958Z,14.68
2022-11-04T05:13:22.788Z,14.80
2022-11-04T05:15:50.145Z,14.79
2022-11-04T05:18:18.026Z,14.81
2022-11-04T05:20:45.318Z,14.81
2022-11-04T05:23:13.659Z,14.83
2022-11-04T05:25:42.215Z,14.91
2022-11-04T05:28:10.481Z,14.85
2022-11-04T05:30:38.390Z,14.77
2022-11-04T05:33:06.557Z,14.75
2022-11-04T05:35:34.726Z,14.74
2022-11-04T05:38:02.215Z,14.76
2022-11-04T05:40:29.562Z,14.75
2022-11-04T05:42:58.983Z,14.84
2022-11-04T05:45:27.508Z,14.96
2022-11-04T05:48:01.010Z,14.98
2022-11-04T05:50:30.163Z,14.91
2022-11-04T05:52:58.710Z,14.87
2022-11-04T05:55:26.842Z,14.86
2022-11-04T05:57:54.504Z,14.80
2022-11-04T06:00:22.007Z,14.80
2022-11-04T06:02:49.468Z,14.75
2022-11-04T06:05:16.977Z,14.79
2022-11-04T06:07:44.311Z,14.77
2022-11-04T06:10:11.632Z,14.79
2022-11-04T06:12:38.964Z,14.85
2022-11-04T06:15:07.015Z,14.88
2022-11-04T06:17:34.730Z,14.75
2022-11-04T06:20:02.186Z,14.76
2022-11-04T06:22:48.368Z,14.73
2022-11-04T06:25:15.843Z,14.71
2022-11-04T06:27:43.241Z,14.68
2022-11-04T06:30:11.435Z,14.65
2022-11-04T06:32:38.834Z,14.60
2022-11-04T06:35:08.886Z,14.53
2022-11-04T06:37:38.242Z,14.53
2022-11-04T06:40:06.275Z,14.52
2022-11-04T06:42:33.656Z,14.51
2022-11-04T06:45:00.923Z,14.50
2022-11-04T06:47:28.399Z,14.49
2022-11-04T06:49:55.784Z,14.56
2022-11-04T06:52:23.093Z,14.55
2022-11-04T06:54:54.197Z,14.39
2022-11-04T06:57:21.738Z,14.34
2022-11-04T06:59:49.135Z,14.20
2022-11-04T07:02:16.645Z,14.20
2022-11-04T07:04:44.281Z,14.12
2022-11-04T07:07:11.781Z,14.14
2022-11-04T07:09:39.321Z,14.06
2022-11-04T07:12:06.684Z,13.98
2022-11-04T07:14:34.115Z,13.72
2022-11-04T07:17:02.105Z,13.57
2022-11-04T07:19:29.450Z,13.09
2022-11-04T07:21:57.885Z,13.14
2022-11-04T07:24:25.311Z,12.97
2022-11-04T07:26:55.795Z,12.92
2022-11-04T07:29:23.272Z,12.84
2022-11-04T07:31:50.730Z,13.02
2022-11-04T07:34:18.171Z,12.95
2022-11-04T07:36:45.700Z,12.83
2022-11-04T07:39:13.132Z,12.78
2022-11-04T07:41:40.532Z,12.76
2022-11-04T07:44:11.599Z,12.67
2022-11-04T07:46:39.230Z,12.54
2022-11-04T07:49:06.697Z,12.59
2022-11-04T07:51:34.914Z,12.47
2022-11-04T07:54:02.834Z,12.50
2022-11-04T07:56:30.241Z,12.49
2022-11-04T07:58:58.255Z,12.54
2022-11-04T08:01:25.761Z,12.58
2022-11-04T08:03:53.371Z,12.56
2022-11-04T08:06:21.620Z,12.66
2022-11-04T08:08:49.246Z,12.70
2022-11-04T08:11:24.909Z,13.00
2022-11-04T08:13:52.273Z,14.31
2022-11-04T08:16:22.191Z,16.19
2022-11-04T08:18:52.628Z,17.89
2022-11-04T08:21:20.873Z,19.25
2022-11-04T08:23:48.391Z,19.26
2022-11-04T08:26:18.268Z,19.88
2022-11-04T08:28:46.579Z,20.69
2022-11-04T08:31:24.912Z,20.02
2022-11-04T08:33:53.969Z,17.90
2022-11-04T08:36:24.733Z,16.51
2022-11-04T08:38:52.874Z,15.32
2022-11-04T08:41:23.769Z,14.97
2022-11-04T08:43:51.187Z,14.60
2022-11-04T08:46:19.637Z,14.44
2022-11-04T08:48:47.223Z,14.21
2022-11-04T08:51:19.619Z,13.99
2022-11-04T08:53:46.962Z,13.78
2022-11-04T08:56:20.903Z,13.70
2022-11-04T08:59:07.075Z,13.78
2022-11-04T09:01:36.530Z,13.72
2022-11-04T09:04:05.516Z,13.73
2022-11-04T09:06:37.599Z,13.75
2022-11-04T09:09:07.328Z,13.78
2022-11-04T09:11:40.195Z,13.91
2022-11-04T09:14:08.135Z,13.93
2022-11-04T09:16:37.425Z,14.07
2022-11-04T09:19:05.082Z,14.01
2022-11-04T09:21:32.386Z,13.98
2022-11-04T09:23:59.689Z,13.89
2022-11-04T09:26:27.095Z,13.94
2022-11-04T09:28:56.134Z,14.00
2022-11-04T09:31:24.309Z,14.03
2022-11-04T09:33:51.713Z,14.03
2022-11-04T09:36:19.076Z,14.05
2022-11-04T09:38:46.788Z,14.07
2022-11-04T09:41:25.935Z,14.15
2022-11-04T09:43:57.093Z,14.29
2022-11-04T09:46:24.503Z,14.24
2022-11-04T09:48:55.307Z,14.35
2022-11-04T09:51:52.532Z,14.37
2022-11-04T09:54:22.643Z,14.38
2022-11-04T09:56:51.722Z,14.38
2022-11-04T09:59:34.649Z,14.43
2022-11-04T10:02:11.852Z,14.15
2022-11-04T10:05:02.354Z,14.17
2022-11-04T10:07:38.688Z,14.18
2022-11-04T10:10:16.715Z,14.06
2022-11-04T10:13:02.222Z,14.02
2022-11-04T10:15:38.895Z,14.10
2022-11-04T10:18:44.021Z,14.04
2022-11-04T10:21:35.812Z,14.03
2022-11-04T10:24:15.473Z,14.01
2022-11-04T10:26:47.257Z,13.95
2022-11-04T10:29:20.470Z,13.91
2022-11-04T10:31:48.129Z,13.89
2022-11-04T10:34:23.728Z,13.79
2022-11-04T10:36:51.770Z,13.73
2022-11-04T10:39:28.068Z,13.63
2022-11-04T10:41:58.120Z,13.60
2022-11-04T10:44:32.543Z,13.60
2022-11-04T10:47:31.710Z,13.62
2022-11-04T10:50:27.898Z,13.68
2022-11-04T10:53:10.306Z,13.72
2022-11-04T10:55:51.393Z,13.73
2022-11-04T10:58:25.790Z,13.73
2022-11-04T11:00:54.665Z,13.96
2022-11-04T11:03:34.345Z,13.88
2022-11-04T11:06:29.355Z,13.88
2022-11-04T11:09:15.361Z,13.99
2022-11-04T11:11:53.337Z,14.11
2022-11-04T11:14:36.734Z,14.16
2022-11-04T11:17:14.345Z,14.21
2022-11-04T11:19:59.406Z,14.20
2022-11-04T11:22:44.703Z,14.20
2022-11-04T11:25:26.877Z,14.32
2022-11-04T11:28:22.228Z,14.56
2022-11-04T11:31:05.690Z,14.88
2022-11-04T11:33:50.453Z,14.86
2022-11-04T11:36:37.937Z,14.90
2022-11-04T11:39:21.981Z,14.82
2022-11-04T11:41:54.783Z,14.87
2022-11-04T11:44:46.937Z,14.99
2022-11-04T11:47:29.758Z,14.99
2022-11-04T11:50:17.955Z,15.01
2022-11-04T11:53:15.232Z,15.03
2022-11-04T11:56:15.400Z,15.14
2022-11-04T12:02:32.741Z,15.20
2022-11-04T12:11:40.399Z,15.42
2022-11-04T12:14:18.814Z,15.55
2022-11-04T12:17:28.235Z,15.48
2022-11-04T12:20:20.909Z,15.44
2022-11-04T12:23:29.362Z,15.48
2022-11-04T12:26:16.869Z,15.54
2022-11-04T12:29:27.665Z,15.62
2022-11-04T12:32:27.024Z,15.65
2022-11-04T12:35:07.683Z,15.68
2022-11-04T12:38:05.212Z,15.71
2022-11-04T12:41:34.226Z,15.69
2022-11-04T12:43:57.001Z,15.74
2022-11-04T12:46:27.092Z,15.89
2022-11-04T12:49:05.968Z,15.72
2022-11-04T12:52:09.431Z,15.68
2022-11-04T12:54:54.103Z,15.71
2022-11-04T12:57:44.488Z,15.80
2022-11-04T13:00:15.394Z,15.75
2022-11-04T13:02:45.533Z,15.79
2022-11-04T13:05:39.241Z,15.71
2022-11-04T13:08:29.909Z,15.72
2022-11-04T13:11:31.376Z,15.60
2022-11-04T13:14:32.349Z,15.60
2022-11-04T13:17:06.905Z,15.51
2022-11-04T13:19:40.936Z,15.52
2022-11-04T13:22:14.248Z,15.53
2022-11-04T13:24:51.375Z,15.61
2022-11-04T13:27:23.567Z,15.66
2022-11-04T13:30:15.513Z,15.62
2022-11-04T13:32:52.758Z,15.59
2022-11-04T13:35:38.318Z,15.65
2022-11-04T13:38:12.704Z,15.65
2022-11-04T13:40:55.600Z,15.58
2022-11-04T13:43:38.174Z,15.52
2022-11-04T13:46:08.678Z,15.49
2022-11-04T13:48:39.237Z,15.58
2022-11-04T13:51:09.883Z,15.57
2022-11-04T13:53:49.640Z,15.57
2022-11-04T13:56:40.611Z,15.55
2022-11-04T13:59:27.470Z,15.56
2022-11-04T14:02:19.821Z,15.58
2022-11-04T14:04:47.610Z,15.60
2022-11-04T14:07:18.137Z,15.56
2022-11-04T14:09:55.580Z,15.65
2022-11-04T14:12:32.698Z,15.60
2022-11-04T14:15:12.530Z,15.60
2022-11-04T14:17:39.896Z,15.66
2022-11-04T14:20:11.569Z,15.71
2022-11-04T14:22:56.527Z,15.67
2022-11-04T14:25:34.934Z,15.63
2022-11-04T14:28:14.414Z,15.68
2022-11-04T14:30:53.038Z,15.63
2022-11-04T14:33:36.528Z,15.61
2022-11-04T14:36:25.407Z,15.62
2022-11-04T14:39:07.852Z,15.66
2022-11-04T14:41:41.385Z,15.67
2022-11-04T14:44:18.562Z,15.62
2022-11-04T14:46:49.413Z,15.60
2022-11-04T14:49:34.720Z,15.66
2022-11-04T14:52:02.263Z,15.75
2022-11-04T14:54:32.525Z,15.68
2022-11-04T14:57:21.497Z,15.65
2022-11-04T14:59:49.923Z,15.59
2022-11-04T15:02:25.874Z,15.65
2022-11-04T15:04:59.452Z,15.62
2022-11-04T15:07:38.707Z,15.55
2022-11-04T15:10:25.950Z,15.52
2022-11-04T15:13:00.226Z,15.57
2022-11-04T15:15:45.341Z,15.64
2022-11-04T15:18:16.552Z,15.59
2022-11-04T15:20:54.413Z,15.48
2022-11-04T15:23:33.764Z,15.52
2022-11-04T15:26:02.416Z,15.39
2022-11-04T15:28:36.640Z,15.39
2022-11-04T15:31:13.256Z,15.37
2022-11-04T15:33:44.380Z,15.29
2022-11-04T15:36:27.928Z,15.15
2022-11-04T15:38:59.317Z,15.12
2022-11-04T15:41:47.970Z,15.14
2022-11-04T15:44:25.795Z,15.09
2022-11-04T15:46:56.240Z,14.96
2022-11-04T15:49:26.388Z,14.91
2022-11-04T15:51:59.919Z,14.86
2022-11-04T15:54:35.508Z,14.79
2022-11-04T15:57:13.911Z,14.74
2022-11-04T15:59:48.472Z,14.68
2022-11-04T16:02:26.225Z,14.62
2022-11-04T16:05:10.558Z,14.51
2022-11-04T16:07:40.508Z,14.47
2022-11-04T16:10:32.592Z,14.43
2022-11-04T16:13:04.360Z,14.41
2022-11-04T16:15:34.536Z,14.36
2022-11-04T16:18:03.726Z,14.28
2022-11-04T16:20:32.533Z,14.22
2022-11-04T16:23:01.868Z,14.16
2022-11-04T16:25:34.326Z,14.13
2022-11-04T16:28:02.673Z,14.07
2022-11-04T16:30:30.733Z,14.10
2022-11-04T16:33:10.561Z,14.07
2022-11-04T16:35:42.684Z,14.05
2022-11-04T16:38:10.179Z,14.02
2022-11-04T16:40:37.548Z,13.98
2022-11-04T16:43:04.950Z,13.85
2022-11-04T16:45:38.014Z,13.82
2022-11-04T16:48:05.644Z,13.82
2022-11-04T16:50:33.036Z,13.78
2022-11-04T16:53:02.563Z,13.78
2022-11-04T16:55:30.738Z,13.80
2022-11-04T16:58:04.689Z,13.68
2022-11-04T17:00:33.215Z,13.72
2022-11-04T17:03:02.020Z,13.63
2022-11-04T17:05:29.401Z,13.61
2022-11-04T17:08:04.445Z,13.61
2022-11-04T17:10:36.327Z,13.52
2022-11-04T17:13:03.986Z,13.53
2022-11-04T17:15:31.413Z,13.51
2022-11-04T17:17:58.726Z,13.48
2022-11-04T17:20:26.096Z,13.48
2022-11-04T17:22:53.484Z,13.43
2022-11-04T17:25:24.599Z,13.52
2022-11-04T17:27:52.360Z,13.51
2022-11-04T17:30:21.832Z,13.44
2022-11-04T17:32:49.398Z,13.43
2022-11-04T17:35:17.532Z,13.45
2022-11-04T17:37:45.537Z,13.51
2022-11-04T17:40:18.404Z,13.46
2022-11-04T17:43:10.348Z,13.43
2022-11-04T17:45:41.561Z,13.41
2022-11-04T17:48:10.293Z,13.32
2022-11-04T17:50:39.547Z,13.31
2022-11-04T17:53:07.420Z,13.22
2022-11-04T17:56:15.886Z,13.25
2022-11-04T17:58:43.735Z,13.26
2022-11-04T18:01:13.152Z,13.24
2022-11-04T18:03:41.540Z,13.22
2022-11-04T18:06:11.892Z,13.05
2022-11-04T18:08:39.964Z,13.02
2022-11-04T18:11:10.434Z,13.00
2022-11-04T18:13:38.007Z,12.97
2022-11-04T18:16:13.331Z,12.98
2022-11-04T18:18:40.850Z,12.99
2022-11-04T18:21:09.044Z,12.98
2022-11-04T18:23:36.707Z,12.97
2022-11-04T18:26:09.317Z,12.94
2022-11-04T18:28:38.203Z,12.91
2022-11-04T18:31:18.251Z,12.81
2022-11-04T18:33:45.604Z,12.67
2022-11-04T18:36:12.917Z,12.70
2022-11-04T18:38:40.353Z,12.70
2022-11-04T18:41:07.698Z,12.65
2022-11-04T18:43:35.677Z,12.64
2022-11-04T18:46:13.979Z,12.66
2022-11-04T18:48:42.392Z,12.61
2022-11-04T18:51:12.218Z,12.57
2022-11-04T18:53:39.928Z,12.57
2022-11-04T18:56:10.238Z,12.52
2022-11-04T18:58:39.171Z,12.53
2022-11-04T19:01:08.055Z,12.37
2022-11-04T19:03:35.939Z,12.40
2022-11-04T19:06:12.005Z,12.37
2022-11-04T19:08:46.316Z,12.23
2022-11-04T19:11:21.383Z,12.16
2022-11-04T19:13:53.123Z,12.15
2022-11-04T19:16:20.710Z,12.05
2022-11-04T19:18:49.427Z,12.02
2022-11-04T19:21:19.570Z,11.94
2022-11-04T19:23:47.231Z,11.89
2022-11-04T19:26:25.315Z,11.99
2022-11-04T19:28:52.775Z,11.90
2022-11-04T19:31:23.305Z,11.94
2022-11-04T19:33:51.087Z,12.02
2022-11-04T19:36:20.923Z,12.02
2022-11-04T19:38:51.715Z,11.98
2022-11-04T19:41:38.139Z,12.00
2022-11-04T19:44:09.140Z,11.88
2022-11-04T19:46:37.269Z,11.79
2022-11-04T19:49:05.200Z,11.68
2022-11-04T19:51:32.579Z,11.70
2022-11-04T19:54:00.352Z,11.76
2022-11-04T19:56:27.889Z,11.69
2022-11-04T19:58:55.400Z,11.68
2022-11-04T20:01:23.965Z,11.75
2022-11-04T20:03:52.037Z,11.57
2022-11-04T20:06:20.303Z,11.59
2022-11-04T20:08:48.998Z,11.63
2022-11-04T20:11:17.577Z,11.69
2022-11-04T20:13:46.372Z,11.55
2022-11-04T20:16:14.070Z,11.55
2022-11-04T20:18:41.670Z,11.44
2022-11-04T20:21:09.891Z,11.40
2022-11-04T20:23:37.427Z,11.42
2022-11-04T20:26:12.923Z,11.46
2022-11-04T20:28:44.172Z,11.49
2022-11-04T20:31:14.554Z,11.55
2022-11-04T20:33:41.969Z,11.56
2022-11-04T20:36:09.692Z,11.52
2022-11-04T20:38:37.797Z,11.56
2022-11-04T20:41:07.178Z,11.56
2022-11-04T20:43:36.402Z,11.59
2022-11-04T20:46:10.722Z,11.60
2022-11-04T20:48:39.665Z,11.52
2022-11-04T20:51:13.524Z,11.49
2022-11-04T20:53:41.950Z,11.50
2022-11-04T20:56:12.787Z,11.56
2022-11-04T20:58:42.300Z,11.49
2022-11-04T21:01:26.295Z,11.33
2022-11-04T21:03:54.648Z,11.30
2022-11-04T21:06:22.027Z,11.20
2022-11-04T21:08:49.334Z,11.28
2022-11-04T21:11:43.056Z,11.27
2022-11-04T21:14:13.773Z,11.34
2022-11-04T21:16:41.414Z,11.25
2022-11-04T21:19:08.834Z,11.25
2022-11-04T21:21:36.115Z,11.25
2022-11-04T21:24:05.920Z,11.21
2022-11-04T21:26:35.212Z,11.30
2022-11-04T21:29:08.099Z,11.30
2022-11-04T21:31:37.693Z,11.37
2022-11-04T21:34:05.397Z,11.31
2022-11-04T21:36:33.596Z,11.23
2022-11-04T21:39:01.173Z,11.28
2022-11-04T21:41:30.433Z,11.25
2022-11-04T21:44:02.051Z,11.18
2022-11-04T21:47:18.987Z,11.25
2022-11-04T21:49:46.305Z,11.44
2022-11-04T21:52:38.479Z,11.51
2022-11-04T21:55:06.843Z,11.45
2022-11-04T21:57:38.414Z,11.38
2022-11-04T22:00:08.796Z,11.34
2022-11-04T22:02:44.303Z,11.35
2022-11-04T22:05:12.594Z,11.34
2022-11-04T22:07:59.149Z,11.17
2022-11-04T22:10:27.620Z,11.21
2022-11-04T22:12:56.008Z,11.19
2022-11-04T22:15:42.177Z,11.16
2022-11-04T22:18:09.511Z,10.91
2022-11-04T22:20:37.301Z,10.93
2022-11-04T22:23:04.671Z,11.06
2022-11-04T22:25:32.070Z,11.06
2022-11-04T22:27:59.462Z,11.05
2022-11-04T22:30:26.952Z,10.89
2022-11-04T22:32:54.403Z,10.95
2022-11-04T22:35:21.874Z,10.99
2022-11-04T22:37:49.365Z,11.08
2022-11-04T22:40:16.783Z,10.85
2022-11-04T22:42:45.553Z,10.86
2022-11-04T22:45:16.754Z,10.94
2022-11-04T22:47:44.566Z,10.79
2022-11-04T22:50:12.041Z,10.84
2022-11-04T22:52:40.172Z,10.83
2022-11-04T22:55:26.078Z,10.81
2022-11-04T22:58:19.289Z,10.79
2022-11-04T23:00:55.427Z,10.71
2022-11-04T23:03:27.223Z,10.80
2022-11-04T23:06:10.008Z,10.78
2022-11-04T23:08:40.255Z,10.83
2022-11-04T23:11:34.599Z,10.69
2022-11-04T23:14:21.614Z,10.49
2022-11-04T23:17:09.792Z,10.63
2022-11-04T23:20:22.041Z,10.69
2022-11-04T23:23:08.606Z,10.63
2022-11-04T23:25:40.197Z,10.59
2022-11-04T23:28:26.685Z,10.47
2022-11-04T23:30:54.474Z,10.59
2022-11-04T23:33:45.316Z,10.81
2022-11-04T23:36:38.920Z,10.92
2022-11-04T23:39:07.781Z,11.05
2022-11-04T23:41:57.288Z,10.97
2022-11-04T23:44:43.706Z,10.72
2022-11-04T23:47:30.227Z,10.49
2022-11-04T23:50:22.507Z,10.27
2022-11-04T23:53:11.401Z,10.00
2022-11-04T23:56:42.544Z,10.04
2022-11-04T23:59:30.372Z,10.21
